createdAt,value
2023-01-11T00:04:39.094Z,7.71
2023-01-11T00:10:10.750Z,7.91
2023-01-11T00:15:42.466Z,7.73
2023-01-11T00:21:14.425Z,7.86
2023-01-11T00:26:45.947Z,7.83
2023-01-11T00:32:17.668Z,7.78
2023-01-11T00:37:49.997Z,7.76
2023-01-11T00:43:21.404Z,7.83
2023-01-11T00:48:52.812Z,7.88
2023-01-11T00:54:29.198Z,7.99
2023-01-11T01:00:01.150Z,8.11
2023-01-11T01:05:32.376Z,7.97
2023-01-11T01:11:04.280Z,7.95
2023-01-11T01:16:35.800Z,7.93
2023-01-11T01:22:07.589Z,7.92
2023-01-11T01:27:39.525Z,8.12
2023-01-11T01:33:11.176Z,8.05
2023-01-11T01:38:42.728Z,8.05
2023-01-11T01:44:15.369Z,8.26
2023-01-11T01:49:46.177Z,8.09
2023-01-11T01:55:22.716Z,8.16
2023-01-11T02:00:53.926Z,8.27
2023-01-11T02:06:25.932Z,8.32
2023-01-11T02:11:57.501Z,8.22
2023-01-11T02:17:29.272Z,8.26
2023-01-11T02:23:00.937Z,8.21
2023-01-11T02:28:32.548Z,8.37
2023-01-11T02:34:04.562Z,8.28
2023-01-11T02:39:36.058Z,8.29
2023-01-11T02:45:07.738Z,8.4
2023-01-11T02:50:39.604Z,8.56
2023-01-11T02:56:17.546Z,8.64
2023-01-11T03:01:49.339Z,8.76
2023-01-11T03:07:21.305Z,8.75
2023-01-11T03:12:52.716Z,8.82
2023-01-11T03:18:24.507Z,8.88
2023-01-11T03:23:56.257Z,8.8
2023-01-11T03:29:28.462Z,8.83
2023-01-11T03:34:59.689Z,8.92
2023-01-11T03:40:31.362Z,9.06
2023-01-11T03:46:03.279Z,9.11
2023-01-11T03:51:35.681Z,9.09
2023-01-11T03:57:10.926Z,9.11
2023-01-11T04:02:42.942Z,9.3
2023-01-11T04:08:14.613Z,9.33
2023-01-11T04:13:47.028Z,9.2
2023-01-11T04:19:17.825Z,9.44
2023-01-11T04:24:50.124Z,9.44
2023-01-11T04:30:21.265Z,9.6
2023-01-11T04:35:52.994Z,9.46
2023-01-11T04:41:24.858Z,9.37
2023-01-11T04:46:56.498Z,9.39
2023-01-11T04:52:28.326Z,9.29
2023-01-11T04:58:04.590Z,9.38
2023-01-11T05:03:36.251Z,9.35
2023-01-11T05:09:07.684Z,9.43
2023-01-11T05:14:39.401Z,9.47
2023-01-11T05:20:11.232Z,9.45
2023-01-11T05:25:42.869Z,9.5
2023-01-11T05:31:14.768Z,9.4
2023-01-11T05:36:46.569Z,9.39
2023-01-11T05:42:18.090Z,9.25
2023-01-11T05:47:50.133Z,9.25
2023-01-11T05:53:21.716Z,9.31
2023-01-11T05:58:57.859Z,9.23
2023-01-11T06:04:29.653Z,9.4
2023-01-11T06:10:01.630Z,9.24
2023-01-11T06:15:32.994Z,9.32
2023-01-11T06:21:05.121Z,9.4
2023-01-11T06:26:36.368Z,9.46
2023-01-11T06:32:08.323Z,9.49
2023-01-11T06:37:39.774Z,9.59
2023-01-11T06:43:12.026Z,9.58
2023-01-11T06:48:43.162Z,9.62
2023-01-11T06:54:15.147Z,9.68
2023-01-11T06:59:51.039Z,9.7
2023-01-11T07:05:22.804Z,9.69
2023-01-11T07:10:54.458Z,9.77
2023-01-11T07:16:26.336Z,9.73
2023-01-11T07:21:57.937Z,9.79
2023-01-11T07:27:29.720Z,9.93
2023-01-11T07:33:01.406Z,10.0
2023-01-11T07:38:33.053Z,10.07
2023-01-11T07:44:05.503Z,10.1
2023-01-11T07:49:36.682Z,10.17
2023-01-11T07:55:08.491Z,10.29
2023-01-11T08:00:54.713Z,10.28
2023-01-11T08:06:26.438Z,10.38
2023-01-11T08:11:57.869Z,10.33
2023-01-11T08:17:29.895Z,10.47
2023-01-11T08:23:01.547Z,10.44
2023-01-11T08:28:33.047Z,10.61
2023-01-11T08:34:04.814Z,10.62
2023-01-11T08:39:37.106Z,10.82
2023-01-11T08:45:08.256Z,10.66
2023-01-11T08:50:39.987Z,10.83
2023-01-11T08:56:11.811Z,11.0
2023-01-11T09:01:48.095Z,11.05
2023-01-11T09:07:19.535Z,11.04
2023-01-11T09:12:51.343Z,11.02
2023-01-11T09:18:23.358Z,11.18
2023-01-11T09:23:54.648Z,11.36
2023-01-11T09:29:26.720Z,11.2
2023-01-11T09:34:58.356Z,11.28
2023-01-11T09:40:29.878Z,11.49
2023-01-11T09:46:01.753Z,11.43
2023-01-11T09:51:33.546Z,11.3
2023-01-11T09:57:05.203Z,11.25
2023-01-11T10:02:41.348Z,11.34
2023-01-11T10:19:37.316Z,11.27
2023-01-11T10:24:48.157Z,11.37
2023-01-11T10:30:20.090Z,11.41
2023-01-11T10:35:51.877Z,11.42
2023-01-11T10:41:23.574Z,11.37
2023-01-11T10:46:55.219Z,11.6
2023-01-11T10:52:26.768Z,11.52
2023-01-11T10:57:59.546Z,11.52
2023-01-11T11:03:34.674Z,11.66
2023-01-11T11:09:06.462Z,11.53
2023-01-11T11:14:38.149Z,11.61
2023-01-11T11:20:10.040Z,11.54
2023-01-11T11:25:43.344Z,11.7
2023-01-11T11:31:13.374Z,11.62
2023-01-11T11:36:45.072Z,11.68
2023-01-11T11:42:16.811Z,11.67
2023-01-11T11:47:48.611Z,11.67
2023-01-11T11:53:20.409Z,11.61
2023-01-11T11:58:51.931Z,11.6
2023-01-11T12:04:28.028Z,11.54
2023-01-11T12:10:00.120Z,11.45
2023-01-11T12:15:31.521Z,11.49
2023-01-11T12:21:03.226Z,11.39
2023-01-11T12:26:34.921Z,11.33
2023-01-11T12:32:06.860Z,11.56
2023-01-11T12:37:38.502Z,11.59
2023-01-11T12:43:10.124Z,11.51
2023-01-11T12:48:41.872Z,11.61
2023-01-11T12:54:13.789Z,11.62
2023-01-11T12:59:45.345Z,11.56
2023-01-11T13:05:23.717Z,11.55
2023-01-11T13:10:55.397Z,11.53
2023-01-11T13:16:27.134Z,11.65
2023-01-11T13:21:58.698Z,11.57
2023-01-11T13:27:30.645Z,11.71
2023-01-11T13:33:02.066Z,11.56
2023-01-11T13:38:34.802Z,11.61
2023-01-11T13:44:05.680Z,11.42
2023-01-11T13:49:37.611Z,11.3
2023-01-11T13:55:14.143Z,11.25
2023-01-11T14:00:40.822Z,11.32
2023-01-11T14:06:17.181Z,11.25
2023-01-11T14:11:48.654Z,10.93
2023-01-11T14:17:20.734Z,10.79
2023-01-11T14:22:52.077Z,10.78
2023-01-11T14:28:23.816Z,10.68
2023-01-11T14:33:55.524Z,10.65
2023-01-11T14:39:27.279Z,10.78
2023-01-11T14:44:59.110Z,10.99
2023-01-11T14:50:30.887Z,10.73
2023-01-11T14:56:02.423Z,10.76
2023-01-11T15:01:34.451Z,10.57
2023-01-11T15:07:12.528Z,10.59
2023-01-11T15:12:44.244Z,10.56
2023-01-11T15:18:15.815Z,10.54
2023-01-11T15:23:47.492Z,10.37
2023-01-11T15:29:19.612Z,10.38
2023-01-11T15:34:50.960Z,10.31
2023-01-11T15:40:22.664Z,10.3
2023-01-11T15:45:54.530Z,10.26
2023-01-11T15:51:26.321Z,10.31
2023-01-11T15:56:58.141Z,10.1
2023-01-11T16:02:29.576Z,10.13
2023-01-11T16:08:07.721Z,10.17
2023-01-11T16:13:39.465Z,10.19
2023-01-11T16:19:11.189Z,10.16
2023-01-11T16:24:42.852Z,10.24
2023-01-11T16:30:14.780Z,10.17
2023-01-11T16:35:46.301Z,10.04
2023-01-11T16:41:18.212Z,9.88
2023-01-11T16:46:49.756Z,9.88
2023-01-11T16:52:21.457Z,9.87
2023-01-11T16:57:53.215Z,10.0
2023-01-11T17:03:25.130Z,9.93
2023-01-11T17:09:01.309Z,9.86
2023-01-11T17:14:32.837Z,9.84
2023-01-11T17:20:04.728Z,9.72
2023-01-11T17:25:44.183Z,9.72
2023-01-11T17:31:08.030Z,9.88
2023-01-11T17:36:39.745Z,9.77
2023-01-11T17:42:11.621Z,9.43
2023-01-11T17:47:43.403Z,9.15
2023-01-11T17:53:15.149Z,8.96
2023-01-11T17:58:46.940Z,8.52
2023-01-11T18:04:19.181Z,8.27
2023-01-11T18:09:56.797Z,8.34
2023-01-11T18:15:28.520Z,8.43
2023-01-11T18:21:00.457Z,8.48
2023-01-11T18:26:32.224Z,8.77
2023-01-11T18:32:03.830Z,8.85
2023-01-11T18:37:35.780Z,8.79
2023-01-11T18:43:07.301Z,9.09
2023-01-11T18:48:39.010Z,9.08
2023-01-11T18:54:10.714Z,8.64
2023-01-11T18:59:42.630Z,8.54
2023-01-11T19:05:15.063Z,8.32
2023-01-11T19:10:50.226Z,8.42
2023-01-11T19:16:21.975Z,8.13
2023-01-11T19:21:53.954Z,7.9
2023-01-11T19:27:25.581Z,7.68
2023-01-11T19:32:57.136Z,7.6
2023-01-11T19:38:28.849Z,7.61
2023-01-11T19:44:00.676Z,7.56
2023-01-11T19:49:32.352Z,7.66
2023-01-11T19:55:04.178Z,7.66
2023-01-11T20:00:35.783Z,8.1
2023-01-11T20:06:07.500Z,8.09
2023-01-11T20:11:43.600Z,7.92
2023-01-11T20:17:15.333Z,7.77
2023-01-11T20:22:47.270Z,7.87
2023-01-11T20:28:18.779Z,7.68
2023-01-11T20:33:50.472Z,7.84
2023-01-11T20:39:22.690Z,7.86
2023-01-11T20:44:54.271Z,7.49
2023-01-11T20:50:26.161Z,7.4
2023-01-11T20:55:57.598Z,7.38
2023-01-11T21:01:29.362Z,7.59
2023-01-11T21:07:01.134Z,7.72
2023-01-11T21:18:08.985Z,7.65
2023-01-11T21:23:40.940Z,7.83
2023-01-11T21:29:12.627Z,7.85
2023-01-11T21:34:44.121Z,8.04
2023-01-11T21:40:16.002Z,8.03
2023-01-11T21:45:48.740Z,8.03
2023-01-11T21:51:19.424Z,7.84
2023-01-11T21:56:51.439Z,7.71
2023-01-11T22:02:22.835Z,7.49
2023-01-11T22:07:54.681Z,7.43
2023-01-11T22:13:32.744Z,7.32
2023-01-11T22:19:04.447Z,7.25
2023-01-11T22:24:36.213Z,7.42
2023-01-11T22:30:08.284Z,7.46
2023-01-11T22:35:39.648Z,7.32
2023-01-11T22:41:11.570Z,7.21
2023-01-11T22:46:43.067Z,7.17
2023-01-11T22:52:14.903Z,7.18
2023-01-11T22:57:46.609Z,7.2
2023-01-11T23:03:19.348Z,7.16
2023-01-11T23:08:49.988Z,7.12
2023-01-11T23:14:26.305Z,7.1
2023-01-11T23:19:57.848Z,7.3
2023-01-11T23:25:29.638Z,7.24
2023-01-11T23:31:01.546Z,7.32
2023-01-11T23:36:33.034Z,7.31
2023-01-11T23:42:04.968Z,7.25
2023-01-11T23:47:36.689Z,7.19
2023-01-11T23:53:08.236Z,7.38
2023-01-11T23:58:40.281Z,7.54
